sensor_id;sensor_type;location;lat;lon;timestamp;P1;durP1;ratioP1;P2;durP2;ratioP2
56517;SDS011;42419;48.760;2.322;2023-06-19T00:01:51;3.70;;;2.07;;
56517;SDS011;42419;48.760;2.322;2023-06-19T00:04:16;2.63;;;2.30;;
56517;SDS011;42419;48.760;2.322;2023-06-19T00:06:41;5.23;;;2.63;;
56517;SDS011;42419;48.760;2.322;2023-06-19T00:09:06;4.00;;;1.93;;
56517;SDS011;42419;48.760;2.322;2023-06-19T00:11:32;3.93;;;2.20;;
56517;SDS011;42419;48.760;2.322;2023-06-19T00:13:57;4.03;;;2.30;;
56517;SDS011;42419;48.760;2.322;2023-06-19T00:16:23;3.80;;;1.80;;
56517;SDS011;42419;48.760;2.322;2023-06-19T00:18:50;2.53;;;2.10;;
56517;SDS011;42419;48.760;2.322;2023-06-19T00:21:15;3.20;;;1.93;;
56517;SDS011;42419;48.760;2.322;2023-06-19T00:23:40;2.63;;;2.43;;
56517;SDS011;42419;48.760;2.322;2023-06-19T00:26:06;2.77;;;2.30;;
56517;SDS011;42419;48.760;2.322;2023-06-19T00:28:31;4.80;;;2.17;;
56517;SDS011;42419;48.760;2.322;2023-06-19T00:30:57;3.57;;;2.40;;
56517;SDS011;42419;48.760;2.322;2023-06-19T00:33:22;2.27;;;2.07;;
56517;SDS011;42419;48.760;2.322;2023-06-19T00:35:51;2.63;;;1.97;;
56517;SDS011;42419;48.760;2.322;2023-06-19T00:38:16;4.77;;;2.67;;
56517;SDS011;42419;48.760;2.322;2023-06-19T00:40:41;2.93;;;2.27;;
56517;SDS011;42419;48.760;2.322;2023-06-19T00:43:07;3.37;;;2.33;;
56517;SDS011;42419;48.760;2.322;2023-06-19T00:45:32;2.63;;;2.00;;
56517;SDS011;42419;48.760;2.322;2023-06-19T00:47:58;3.10;;;2.00;;
56517;SDS011;42419;48.760;2.322;2023-06-19T00:50:24;2.67;;;2.10;;
56517;SDS011;42419;48.760;2.322;2023-06-19T00:52:52;4.77;;;2.10;;
56517;SDS011;42419;48.760;2.322;2023-06-19T00:55:18;2.17;;;1.97;;
56517;SDS011;42419;48.760;2.322;2023-06-19T00:57:43;4.30;;;2.30;;
56517;SDS011;42419;48.760;2.322;2023-06-19T01:00:10;3.80;;;2.10;;
56517;SDS011;42419;48.760;2.322;2023-06-19T01:02:37;2.07;;;1.87;;
56517;SDS011;42419;48.760;2.322;2023-06-19T01:05:03;2.70;;;2.00;;
56517;SDS011;42419;48.760;2.322;2023-06-19T01:07:46;3.67;;;2.17;;
56517;SDS011;42419;48.760;2.322;2023-06-19T01:10:21;1.80;;;1.70;;
56517;SDS011;42419;48.760;2.322;2023-06-19T01:13:02;2.40;;;2.20;;
56517;SDS011;42419;48.760;2.322;2023-06-19T01:15:41;5.63;;;2.57;;
56517;SDS011;42419;48.760;2.322;2023-06-19T01:18:07;4.10;;;2.20;;
56517;SDS011;42419;48.760;2.322;2023-06-19T01:20:36;3.47;;;2.50;;
56517;SDS011;42419;48.760;2.322;2023-06-19T01:23:06;2.93;;;2.40;;
56517;SDS011;42419;48.760;2.322;2023-06-19T01:25:33;3.63;;;2.03;;
56517;SDS011;42419;48.760;2.322;2023-06-19T01:27:58;3.10;;;2.37;;
56517;SDS011;42419;48.760;2.322;2023-06-19T01:30:23;4.13;;;2.17;;
56517;SDS011;42419;48.760;2.322;2023-06-19T01:35:19;3.20;;;2.20;;
56517;SDS011;42419;48.760;2.322;2023-06-19T01:37:49;3.90;;;2.50;;
56517;SDS011;42419;48.760;2.322;2023-06-19T01:40:17;3.23;;;2.30;;
56517;SDS011;42419;48.760;2.322;2023-06-19T01:42:45;2.13;;;1.93;;
56517;SDS011;42419;48.760;2.322;2023-06-19T01:45:11;3.70;;;2.50;;
56517;SDS011;42419;48.760;2.322;2023-06-19T01:47:37;2.50;;;2.30;;
56517;SDS011;42419;48.760;2.322;2023-06-19T01:50:02;3.50;;;2.40;;
56517;SDS011;42419;48.760;2.322;2023-06-19T01:52:29;4.10;;;3.03;;
56517;SDS011;42419;48.760;2.322;2023-06-19T01:54:54;9.00;;;2.97;;
56517;SDS011;42419;48.760;2.322;2023-06-19T01:57:19;3.00;;;2.30;;
56517;SDS011;42419;48.760;2.322;2023-06-19T01:59:45;2.73;;;2.23;;
56517;SDS011;42419;48.760;2.322;2023-06-19T02:02:10;2.60;;;2.40;;
56517;SDS011;42419;48.760;2.322;2023-06-19T02:04:36;4.17;;;3.00;;
56517;SDS011;42419;48.760;2.322;2023-06-19T02:07:01;3.60;;;2.77;;
56517;SDS011;42419;48.760;2.322;2023-06-19T02:09:27;4.30;;;2.40;;
56517;SDS011;42419;48.760;2.322;2023-06-19T02:11:52;5.77;;;2.70;;
56517;SDS011;42419;48.760;2.322;2023-06-19T02:14:18;6.67;;;2.60;;
56517;SDS011;42419;48.760;2.322;2023-06-19T02:16:43;6.03;;;2.93;;
56517;SDS011;42419;48.760;2.322;2023-06-19T02:19:09;5.20;;;3.00;;
56517;SDS011;42419;48.760;2.322;2023-06-19T02:21:35;3.60;;;2.83;;
56517;SDS011;42419;48.760;2.322;2023-06-19T02:24:00;4.30;;;2.57;;
56517;SDS011;42419;48.760;2.322;2023-06-19T02:26:26;3.03;;;2.80;;
56517;SDS011;42419;48.760;2.322;2023-06-19T02:28:53;3.33;;;3.03;;
56517;SDS011;42419;48.760;2.322;2023-06-19T02:31:19;2.90;;;2.70;;
56517;SDS011;42419;48.760;2.322;2023-06-19T02:33:44;4.87;;;2.93;;
56517;SDS011;42419;48.760;2.322;2023-06-19T02:36:10;2.60;;;2.40;;
56517;SDS011;42419;48.760;2.322;2023-06-19T02:38:35;6.07;;;3.07;;
56517;SDS011;42419;48.760;2.322;2023-06-19T02:41:01;3.60;;;3.30;;
56517;SDS011;42419;48.760;2.322;2023-06-19T02:43:26;2.70;;;2.50;;
56517;SDS011;42419;48.760;2.322;2023-06-19T02:45:52;4.10;;;2.73;;
56517;SDS011;42419;48.760;2.322;2023-06-19T02:48:17;3.73;;;3.43;;
56517;SDS011;42419;48.760;2.322;2023-06-19T02:50:42;4.30;;;3.30;;
56517;SDS011;42419;48.760;2.322;2023-06-19T02:53:08;7.47;;;3.37;;
56517;SDS011;42419;48.760;2.322;2023-06-19T02:55:33;5.53;;;3.53;;
56517;SDS011;42419;48.760;2.322;2023-06-19T02:57:59;4.57;;;3.83;;
56517;SDS011;42419;48.760;2.322;2023-06-19T03:00:25;5.40;;;3.70;;
56517;SDS011;42419;48.760;2.322;2023-06-19T03:02:52;4.93;;;3.43;;
56517;SDS011;42419;48.760;2.322;2023-06-19T03:05:18;7.37;;;3.73;;
56517;SDS011;42419;48.760;2.322;2023-06-19T03:07:44;3.77;;;3.07;;
56517;SDS011;42419;48.760;2.322;2023-06-19T03:10:09;5.27;;;3.10;;
56517;SDS011;42419;48.760;2.322;2023-06-19T03:12:35;3.87;;;3.57;;
56517;SDS011;42419;48.760;2.322;2023-06-19T03:15:00;4.50;;;3.40;;
56517;SDS011;42419;48.760;2.322;2023-06-19T03:17:25;3.13;;;2.80;;
56517;SDS011;42419;48.760;2.322;2023-06-19T03:19:51;4.00;;;3.07;;
56517;SDS011;42419;48.760;2.322;2023-06-19T03:22:17;7.73;;;3.60;;
56517;SDS011;42419;48.760;2.322;2023-06-19T03:24:42;4.47;;;3.60;;
56517;SDS011;42419;48.760;2.322;2023-06-19T03:27:08;3.47;;;3.20;;
56517;SDS011;42419;48.760;2.322;2023-06-19T03:29:33;6.17;;;3.60;;
56517;SDS011;42419;48.760;2.322;2023-06-19T03:31:58;7.10;;;3.27;;
56517;SDS011;42419;48.760;2.322;2023-06-19T03:34:23;6.00;;;3.70;;
56517;SDS011;42419;48.760;2.322;2023-06-19T03:36:50;5.80;;;3.20;;
56517;SDS011;42419;48.760;2.322;2023-06-19T03:39:15;3.97;;;3.20;;
56517;SDS011;42419;48.760;2.322;2023-06-19T03:41:40;3.50;;;3.23;;
56517;SDS011;42419;48.760;2.322;2023-06-19T03:44:06;4.10;;;3.80;;
56517;SDS011;42419;48.760;2.322;2023-06-19T03:46:31;5.73;;;3.33;;
56517;SDS011;42419;48.760;2.322;2023-06-19T03:48:56;3.90;;;3.60;;
56517;SDS011;42419;48.760;2.322;2023-06-19T03:51:21;3.50;;;3.20;;
56517;SDS011;42419;48.760;2.322;2023-06-19T03:53:47;5.57;;;3.60;;
56517;SDS011;42419;48.760;2.322;2023-06-19T03:56:12;4.30;;;3.63;;
56517;SDS011;42419;48.760;2.322;2023-06-19T03:58:37;5.53;;;3.93;;
56517;SDS011;42419;48.760;2.322;2023-06-19T04:01:03;5.43;;;3.50;;
56517;SDS011;42419;48.760;2.322;2023-06-19T04:03:30;4.23;;;3.60;;
56517;SDS011;42419;48.760;2.322;2023-06-19T04:05:55;4.03;;;3.63;;
56517;SDS011;42419;48.760;2.322;2023-06-19T04:08:24;4.17;;;3.83;;
56517;SDS011;42419;48.760;2.322;2023-06-19T04:10:50;3.23;;;3.03;;
56517;SDS011;42419;48.760;2.322;2023-06-19T04:13:15;6.60;;;3.53;;
56517;SDS011;42419;48.760;2.322;2023-06-19T04:15:41;3.90;;;3.00;;
56517;SDS011;42419;48.760;2.322;2023-06-19T04:18:09;4.10;;;3.80;;
56517;SDS011;42419;48.760;2.322;2023-06-19T04:20:34;3.77;;;3.47;;
56517;SDS011;42419;48.760;2.322;2023-06-19T04:22:59;3.40;;;3.20;;
56517;SDS011;42419;48.760;2.322;2023-06-19T04:25:25;4.47;;;3.47;;
56517;SDS011;42419;48.760;2.322;2023-06-19T04:27:51;4.70;;;3.50;;
56517;SDS011;42419;48.760;2.322;2023-06-19T04:30:16;4.73;;;3.20;;
56517;SDS011;42419;48.760;2.322;2023-06-19T04:32:42;4.43;;;4.03;;
56517;SDS011;42419;48.760;2.322;2023-06-19T04:35:08;3.67;;;3.30;;
56517;SDS011;42419;48.760;2.322;2023-06-19T04:37:34;3.47;;;3.17;;
56517;SDS011;42419;48.760;2.322;2023-06-19T04:39:59;4.00;;;3.70;;
56517;SDS011;42419;48.760;2.322;2023-06-19T04:42:24;5.57;;;3.03;;
56517;SDS011;42419;48.760;2.322;2023-06-19T04:44:51;4.10;;;3.70;;
56517;SDS011;42419;48.760;2.322;2023-06-19T04:47:17;4.43;;;3.37;;
56517;SDS011;42419;48.760;2.322;2023-06-19T04:49:44;3.83;;;3.03;;
56517;SDS011;42419;48.760;2.322;2023-06-19T04:52:10;4.57;;;3.33;;
56517;SDS011;42419;48.760;2.322;2023-06-19T04:54:36;4.20;;;3.80;;
56517;SDS011;42419;48.760;2.322;2023-06-19T04:57:02;5.10;;;3.63;;
56517;SDS011;42419;48.760;2.322;2023-06-19T04:59:27;5.90;;;4.30;;
56517;SDS011;42419;48.760;2.322;2023-06-19T05:01:53;4.40;;;4.00;;
56517;SDS011;42419;48.760;2.322;2023-06-19T05:04:19;4.77;;;4.30;;
56517;SDS011;42419;48.760;2.322;2023-06-19T05:06:45;4.53;;;4.13;;
56517;SDS011;42419;48.760;2.322;2023-06-19T05:09:11;7.30;;;4.30;;
56517;SDS011;42419;48.760;2.322;2023-06-19T05:11:36;4.30;;;3.90;;
56517;SDS011;42419;48.760;2.322;2023-06-19T05:14:02;4.93;;;4.53;;
56517;SDS011;42419;48.760;2.322;2023-06-19T05:16:27;4.60;;;4.20;;
56517;SDS011;42419;48.760;2.322;2023-06-19T05:18:53;4.47;;;4.07;;
56517;SDS011;42419;48.760;2.322;2023-06-19T05:21:18;4.73;;;4.13;;
56517;SDS011;42419;48.760;2.322;2023-06-19T05:23:43;5.50;;;4.33;;
56517;SDS011;42419;48.760;2.322;2023-06-19T05:26:09;8.17;;;4.80;;
56517;SDS011;42419;48.760;2.322;2023-06-19T05:28:34;6.07;;;4.40;;
56517;SDS011;42419;48.760;2.322;2023-06-19T05:30:59;4.63;;;4.20;;
56517;SDS011;42419;48.760;2.322;2023-06-19T05:33:25;6.90;;;4.40;;
56517;SDS011;42419;48.760;2.322;2023-06-19T05:35:50;5.43;;;4.73;;
56517;SDS011;42419;48.760;2.322;2023-06-19T05:38:18;4.70;;;4.30;;
56517;SDS011;42419;48.760;2.322;2023-06-19T05:40:44;4.80;;;4.40;;
56517;SDS011;42419;48.760;2.322;2023-06-19T05:43:09;5.73;;;5.23;;
56517;SDS011;42419;48.760;2.322;2023-06-19T05:45:35;4.73;;;4.30;;
56517;SDS011;42419;48.760;2.322;2023-06-19T05:48:00;5.50;;;5.10;;
56517;SDS011;42419;48.760;2.322;2023-06-19T05:50:25;5.37;;;4.87;;
56517;SDS011;42419;48.760;2.322;2023-06-19T05:52:51;5.53;;;5.10;;
56517;SDS011;42419;48.760;2.322;2023-06-19T05:55:16;5.40;;;4.87;;
56517;SDS011;42419;48.760;2.322;2023-06-19T05:57:42;4.83;;;4.33;;
56517;SDS011;42419;48.760;2.322;2023-06-19T06:00:08;7.33;;;4.47;;
56517;SDS011;42419;48.760;2.322;2023-06-19T06:02:38;6.10;;;5.03;;
56517;SDS011;42419;48.760;2.322;2023-06-19T06:05:04;5.40;;;5.00;;
56517;SDS011;42419;48.760;2.322;2023-06-19T06:07:30;6.80;;;4.70;;
56517;SDS011;42419;48.760;2.322;2023-06-19T06:09:55;5.33;;;4.83;;
56517;SDS011;42419;48.760;2.322;2023-06-19T06:12:23;4.87;;;4.43;;
56517;SDS011;42419;48.760;2.322;2023-06-19T06:14:49;9.53;;;4.73;;
56517;SDS011;42419;48.760;2.322;2023-06-19T06:17:14;5.03;;;4.63;;
56517;SDS011;42419;48.760;2.322;2023-06-19T06:19:39;4.60;;;4.20;;
56517;SDS011;42419;48.760;2.322;2023-06-19T06:22:05;5.00;;;4.50;;
56517;SDS011;42419;48.760;2.322;2023-06-19T06:24:30;6.00;;;4.53;;
56517;SDS011;42419;48.760;2.322;2023-06-19T06:26:55;5.30;;;4.80;;
56517;SDS011;42419;48.760;2.322;2023-06-19T06:29:21;5.23;;;4.70;;
56517;SDS011;42419;48.760;2.322;2023-06-19T06:31:46;5.10;;;4.70;;
56517;SDS011;42419;48.760;2.322;2023-06-19T06:34:12;5.30;;;4.80;;
56517;SDS011;42419;48.760;2.322;2023-06-19T06:36:38;6.50;;;5.43;;
56517;SDS011;42419;48.760;2.322;2023-06-19T06:39:04;9.43;;;5.70;;
56517;SDS011;42419;48.760;2.322;2023-06-19T06:41:30;6.83;;;6.10;;
56517;SDS011;42419;48.760;2.322;2023-06-19T06:43:56;6.70;;;6.10;;
56517;SDS011;42419;48.760;2.322;2023-06-19T06:46:21;6.80;;;6.20;;
56517;SDS011;42419;48.760;2.322;2023-06-19T06:48:46;6.23;;;5.63;;
56517;SDS011;42419;48.760;2.322;2023-06-19T06:51:13;7.30;;;5.80;;
56517;SDS011;42419;48.760;2.322;2023-06-19T06:53:38;14.23;;;5.77;;
56517;SDS011;42419;48.760;2.322;2023-06-19T06:56:03;5.50;;;5.00;;
56517;SDS011;42419;48.760;2.322;2023-06-19T06:58:29;7.60;;;6.77;;
56517;SDS011;42419;48.760;2.322;2023-06-19T07:00:55;6.87;;;5.50;;
56517;SDS011;42419;48.760;2.322;2023-06-19T07:03:21;6.17;;;5.40;;
56517;SDS011;42419;48.760;2.322;2023-06-19T07:05:47;6.40;;;5.20;;
56517;SDS011;42419;48.760;2.322;2023-06-19T07:08:13;12.47;;;5.80;;
56517;SDS011;42419;48.760;2.322;2023-06-19T07:10:38;5.60;;;5.10;;
56517;SDS011;42419;48.760;2.322;2023-06-19T07:13:04;7.20;;;5.43;;
56517;SDS011;42419;48.760;2.322;2023-06-19T07:15:29;8.70;;;5.13;;
56517;SDS011;42419;48.760;2.322;2023-06-19T07:17:55;5.27;;;4.77;;
56517;SDS011;42419;48.760;2.322;2023-06-19T07:20:21;5.63;;;5.13;;
56517;SDS011;42419;48.760;2.322;2023-06-19T07:22:46;5.73;;;4.50;;
56517;SDS011;42419;48.760;2.322;2023-06-19T07:25:12;5.80;;;5.03;;
56517;SDS011;42419;48.760;2.322;2023-06-19T07:27:38;5.60;;;5.10;;
56517;SDS011;42419;48.760;2.322;2023-06-19T07:30:05;5.73;;;5.23;;
56517;SDS011;42419;48.760;2.322;2023-06-19T07:32:31;7.73;;;4.80;;
56517;SDS011;42419;48.760;2.322;2023-06-19T07:34:56;5.47;;;4.90;;
56517;SDS011;42419;48.760;2.322;2023-06-19T07:37:21;5.83;;;5.30;;
56517;SDS011;42419;48.760;2.322;2023-06-19T07:39:47;10.00;;;5.27;;
56517;SDS011;42419;48.760;2.322;2023-06-19T07:42:17;6.20;;;5.70;;
56517;SDS011;42419;48.760;2.322;2023-06-19T07:44:44;7.33;;;5.00;;
56517;SDS011;42419;48.760;2.322;2023-06-19T07:47:09;6.33;;;5.40;;
56517;SDS011;42419;48.760;2.322;2023-06-19T07:49:35;6.43;;;5.83;;
56517;SDS011;42419;48.760;2.322;2023-06-19T07:52:01;6.43;;;5.50;;
56517;SDS011;42419;48.760;2.322;2023-06-19T07:54:27;6.53;;;5.23;;
56517;SDS011;42419;48.760;2.322;2023-06-19T07:56:52;6.00;;;5.40;;
56517;SDS011;42419;48.760;2.322;2023-06-19T07:59:18;7.53;;;5.70;;
56517;SDS011;42419;48.760;2.322;2023-06-19T08:01:43;12.50;;;6.17;;
56517;SDS011;42419;48.760;2.322;2023-06-19T08:04:09;9.20;;;6.30;;
56517;SDS011;42419;48.760;2.322;2023-06-19T08:06:34;6.87;;;5.20;;
56517;SDS011;42419;48.760;2.322;2023-06-19T08:09:00;7.27;;;5.50;;
56517;SDS011;42419;48.760;2.322;2023-06-19T08:11:26;6.33;;;4.87;;
56517;SDS011;42419;48.760;2.322;2023-06-19T08:13:51;7.40;;;5.27;;
56517;SDS011;42419;48.760;2.322;2023-06-19T08:16:17;5.90;;;5.40;;
56517;SDS011;42419;48.760;2.322;2023-06-19T08:18:43;10.43;;;5.90;;
56517;SDS011;42419;48.760;2.322;2023-06-19T08:21:09;7.00;;;6.20;;
56517;SDS011;42419;48.760;2.322;2023-06-19T08:23:35;7.30;;;5.53;;
56517;SDS011;42419;48.760;2.322;2023-06-19T08:26:00;6.40;;;5.67;;
56517;SDS011;42419;48.760;2.322;2023-06-19T08:28:27;7.03;;;5.43;;
56517;SDS011;42419;48.760;2.322;2023-06-19T08:30:52;7.50;;;5.87;;
56517;SDS011;42419;48.760;2.322;2023-06-19T08:33:17;6.50;;;5.90;;
56517;SDS011;42419;48.760;2.322;2023-06-19T08:35:43;6.27;;;5.70;;
56517;SDS011;42419;48.760;2.322;2023-06-19T08:38:09;7.70;;;5.60;;
56517;SDS011;42419;48.760;2.322;2023-06-19T08:40:34;7.50;;;5.60;;
56517;SDS011;42419;48.760;2.322;2023-06-19T08:43:00;5.40;;;4.90;;
56517;SDS011;42419;48.760;2.322;2023-06-19T08:45:28;5.43;;;5.03;;
56517;SDS011;42419;48.760;2.322;2023-06-19T08:48:00;5.53;;;4.97;;
56517;SDS011;42419;48.760;2.322;2023-06-19T08:50:28;7.43;;;4.90;;
56517;SDS011;42419;48.760;2.322;2023-06-19T08:52:54;10.87;;;6.83;;
56517;SDS011;42419;48.760;2.322;2023-06-19T08:55:20;7.40;;;6.70;;
56517;SDS011;42419;48.760;2.322;2023-06-19T08:57:47;9.00;;;6.10;;
56517;SDS011;42419;48.760;2.322;2023-06-19T09:00:22;8.07;;;6.30;;
56517;SDS011;42419;48.760;2.322;2023-06-19T09:02:51;7.90;;;5.63;;
56517;SDS011;42419;48.760;2.322;2023-06-19T09:05:18;6.60;;;5.33;;
56517;SDS011;42419;48.760;2.322;2023-06-19T09:07:44;7.77;;;5.07;;
56517;SDS011;42419;48.760;2.322;2023-06-19T09:10:23;5.83;;;5.23;;
56517;SDS011;42419;48.760;2.322;2023-06-19T09:12:56;5.10;;;4.70;;
56517;SDS011;42419;48.760;2.322;2023-06-19T09:15:22;6.53;;;4.50;;
56517;SDS011;42419;48.760;2.322;2023-06-19T09:17:58;4.40;;;4.10;;
56517;SDS011;42419;48.760;2.322;2023-06-19T09:20:28;5.00;;;4.60;;
56517;SDS011;42419;48.760;2.322;2023-06-19T09:22:54;5.30;;;4.80;;
56517;SDS011;42419;48.760;2.322;2023-06-19T09:25:20;4.90;;;4.00;;
56517;SDS011;42419;48.760;2.322;2023-06-19T09:27:46;5.80;;;4.30;;
56517;SDS011;42419;48.760;2.322;2023-06-19T09:30:14;5.23;;;4.40;;
56517;SDS011;42419;48.760;2.322;2023-06-19T09:32:41;4.37;;;4.00;;
56517;SDS011;42419;48.760;2.322;2023-06-19T09:35:06;6.00;;;4.20;;
56517;SDS011;42419;48.760;2.322;2023-06-19T09:37:32;8.50;;;4.50;;
56517;SDS011;42419;48.760;2.322;2023-06-19T09:39:58;6.20;;;4.33;;
56517;SDS011;42419;48.760;2.322;2023-06-19T09:42:39;4.23;;;3.93;;
56517;SDS011;42419;48.760;2.322;2023-06-19T09:45:06;4.63;;;4.07;;
56517;SDS011;42419;48.760;2.322;2023-06-19T09:47:36;4.90;;;4.50;;
56517;SDS011;42419;48.760;2.322;2023-06-19T09:50:04;4.57;;;4.07;;
56517;SDS011;42419;48.760;2.322;2023-06-19T09:52:31;4.13;;;3.73;;
56517;SDS011;42419;48.760;2.322;2023-06-19T09:54:57;4.87;;;4.40;;
56517;SDS011;42419;48.760;2.322;2023-06-19T09:57:23;5.87;;;5.30;;
56517;SDS011;42419;48.760;2.322;2023-06-19T09:59:52;5.60;;;4.70;;
56517;SDS011;42419;48.760;2.322;2023-06-19T10:02:19;4.93;;;4.13;;
56517;SDS011;42419;48.760;2.322;2023-06-19T10:04:49;6.07;;;4.60;;
56517;SDS011;42419;48.760;2.322;2023-06-19T10:07:20;6.07;;;4.43;;
56517;SDS011;42419;48.760;2.322;2023-06-19T10:09:57;7.73;;;4.47;;
56517;SDS011;42419;48.760;2.322;2023-06-19T10:13:10;7.47;;;4.90;;
56517;SDS011;42419;48.760;2.322;2023-06-19T10:17:51;7.03;;;5.30;;
56517;SDS011;42419;48.760;2.322;2023-06-19T10:23:00;4.87;;;4.47;;
56517;SDS011;42419;48.760;2.322;2023-06-19T10:25:32;8.90;;;4.40;;
56517;SDS011;42419;48.760;2.322;2023-06-19T10:28:02;4.83;;;4.30;;
56517;SDS011;42419;48.760;2.322;2023-06-19T10:30:30;4.97;;;4.20;;
56517;SDS011;42419;48.760;2.322;2023-06-19T10:32:56;5.37;;;4.60;;
56517;SDS011;42419;48.760;2.322;2023-06-19T10:35:22;4.73;;;4.33;;
56517;SDS011;42419;48.760;2.322;2023-06-19T10:37:49;5.17;;;4.77;;
56517;SDS011;42419;48.760;2.322;2023-06-19T10:40:15;5.10;;;4.70;;
56517;SDS011;42419;48.760;2.322;2023-06-19T10:42:41;7.40;;;4.23;;
56517;SDS011;42419;48.760;2.322;2023-06-19T10:45:07;4.43;;;4.03;;
56517;SDS011;42419;48.760;2.322;2023-06-19T10:47:34;6.40;;;3.93;;
56517;SDS011;42419;48.760;2.322;2023-06-19T10:49:59;4.87;;;4.33;;
56517;SDS011;42419;48.760;2.322;2023-06-19T10:52:27;5.63;;;4.77;;
56517;SDS011;42419;48.760;2.322;2023-06-19T10:54:54;4.67;;;4.00;;
56517;SDS011;42419;48.760;2.322;2023-06-19T10:57:26;4.50;;;4.10;;
56517;SDS011;42419;48.760;2.322;2023-06-19T10:59:52;5.33;;;4.60;;
56517;SDS011;42419;48.760;2.322;2023-06-19T11:02:18;6.00;;;4.37;;
56517;SDS011;42419;48.760;2.322;2023-06-19T11:04:43;10.30;;;4.50;;
56517;SDS011;42419;48.760;2.322;2023-06-19T11:07:09;5.13;;;4.50;;
56517;SDS011;42419;48.760;2.322;2023-06-19T11:09:35;4.50;;;4.10;;
56517;SDS011;42419;48.760;2.322;2023-06-19T11:12:00;6.13;;;5.10;;
56517;SDS011;42419;48.760;2.322;2023-06-19T11:14:28;6.23;;;4.97;;
56517;SDS011;42419;48.760;2.322;2023-06-19T11:16:55;4.73;;;4.10;;
56517;SDS011;42419;48.760;2.322;2023-06-19T11:19:21;4.23;;;3.83;;
56517;SDS011;42419;48.760;2.322;2023-06-19T11:21:51;5.13;;;4.40;;
56517;SDS011;42419;48.760;2.322;2023-06-19T11:24:17;4.90;;;4.50;;
56517;SDS011;42419;48.760;2.322;2023-06-19T11:26:45;4.87;;;4.33;;
56517;SDS011;42419;48.760;2.322;2023-06-19T11:31:45;3.90;;;3.43;;
56517;SDS011;42419;48.760;2.322;2023-06-19T11:34:12;4.80;;;4.40;;
56517;SDS011;42419;48.760;2.322;2023-06-19T11:36:40;3.93;;;3.60;;
56517;SDS011;42419;48.760;2.322;2023-06-19T11:39:10;4.80;;;3.97;;
56517;SDS011;42419;48.760;2.322;2023-06-19T11:41:38;4.60;;;4.20;;
56517;SDS011;42419;48.760;2.322;2023-06-19T11:44:04;7.30;;;4.70;;
56517;SDS011;42419;48.760;2.322;2023-06-19T11:46:31;4.03;;;3.73;;
56517;SDS011;42419;48.760;2.322;2023-06-19T11:49:07;4.90;;;4.50;;
56517;SDS011;42419;48.760;2.322;2023-06-19T11:51:39;4.40;;;4.07;;
56517;SDS011;42419;48.760;2.322;2023-06-19T11:54:07;4.10;;;3.80;;
56517;SDS011;42419;48.760;2.322;2023-06-19T11:56:34;4.30;;;3.90;;
56517;SDS011;42419;48.760;2.322;2023-06-19T11:59:05;4.40;;;4.00;;
56517;SDS011;42419;48.760;2.322;2023-06-19T12:01:31;5.00;;;4.43;;
56517;SDS011;42419;48.760;2.322;2023-06-19T12:03:58;4.17;;;3.87;;
56517;SDS011;42419;48.760;2.322;2023-06-19T12:06:23;4.37;;;3.97;;
56517;SDS011;42419;48.760;2.322;2023-06-19T12:08:49;4.73;;;4.17;;
56517;SDS011;42419;48.760;2.322;2023-06-19T12:11:15;4.03;;;3.70;;
56517;SDS011;42419;48.760;2.322;2023-06-19T12:13:40;4.53;;;4.13;;
56517;SDS011;42419;48.760;2.322;2023-06-19T12:16:06;5.40;;;4.50;;
56517;SDS011;42419;48.760;2.322;2023-06-19T12:18:34;4.97;;;4.30;;
56517;SDS011;42419;48.760;2.322;2023-06-19T12:20:59;5.00;;;4.20;;
56517;SDS011;42419;48.760;2.322;2023-06-19T12:23:25;4.10;;;3.80;;
56517;SDS011;42419;48.760;2.322;2023-06-19T12:25:50;4.70;;;4.30;;
56517;SDS011;42419;48.760;2.322;2023-06-19T12:28:15;4.70;;;4.30;;
56517;SDS011;42419;48.760;2.322;2023-06-19T12:30:44;4.17;;;3.87;;
56517;SDS011;42419;48.760;2.322;2023-06-19T12:33:09;4.13;;;3.83;;
56517;SDS011;42419;48.760;2.322;2023-06-19T12:35:35;4.93;;;3.97;;
56517;SDS011;42419;48.760;2.322;2023-06-19T12:38:02;4.43;;;4.03;;
56517;SDS011;42419;48.760;2.322;2023-06-19T12:40:28;4.13;;;3.83;;
56517;SDS011;42419;48.760;2.322;2023-06-19T12:42:53;4.27;;;3.70;;
56517;SDS011;42419;48.760;2.322;2023-06-19T12:45:18;4.50;;;4.10;;
56517;SDS011;42419;48.760;2.322;2023-06-19T12:47:44;3.60;;;3.30;;
56517;SDS011;42419;48.760;2.322;2023-06-19T12:50:09;4.20;;;3.80;;
56517;SDS011;42419;48.760;2.322;2023-06-19T12:52:36;3.40;;;3.20;;
56517;SDS011;42419;48.760;2.322;2023-06-19T12:55:01;3.73;;;3.43;;
56517;SDS011;42419;48.760;2.322;2023-06-19T12:57:27;4.40;;;4.00;;
56517;SDS011;42419;48.760;2.322;2023-06-19T12:59:52;4.30;;;4.00;;
56517;SDS011;42419;48.760;2.322;2023-06-19T13:02:17;4.43;;;4.00;;
56517;SDS011;42419;48.760;2.322;2023-06-19T13:04:43;4.63;;;4.17;;
56517;SDS011;42419;48.760;2.322;2023-06-19T13:07:08;4.00;;;3.60;;
56517;SDS011;42419;48.760;2.322;2023-06-19T13:09:33;4.10;;;3.80;;
56517;SDS011;42419;48.760;2.322;2023-06-19T13:12:00;4.03;;;3.73;;
56517;SDS011;42419;48.760;2.322;2023-06-19T13:14:26;5.17;;;4.10;;
56517;SDS011;42419;48.760;2.322;2023-06-19T13:16:51;4.47;;;4.17;;
56517;SDS011;42419;48.760;2.322;2023-06-19T13:19:17;4.47;;;4.13;;
56517;SDS011;42419;48.760;2.322;2023-06-19T13:21:42;4.40;;;4.00;;
56517;SDS011;42419;48.760;2.322;2023-06-19T13:24:08;4.57;;;4.20;;
56517;SDS011;42419;48.760;2.322;2023-06-19T13:26:33;4.37;;;3.80;;
56517;SDS011;42419;48.760;2.322;2023-06-19T13:28:58;4.70;;;4.40;;
56517;SDS011;42419;48.760;2.322;2023-06-19T13:31:25;4.27;;;3.87;;
56517;SDS011;42419;48.760;2.322;2023-06-19T13:33:51;4.30;;;4.00;;
56517;SDS011;42419;48.760;2.322;2023-06-19T13:36:16;4.67;;;4.37;;
56517;SDS011;42419;48.760;2.322;2023-06-19T13:38:43;4.37;;;3.90;;
56517;SDS011;42419;48.760;2.322;2023-06-19T13:41:09;4.50;;;4.20;;
56517;SDS011;42419;48.760;2.322;2023-06-19T13:43:34;4.30;;;3.90;;
56517;SDS011;42419;48.760;2.322;2023-06-19T13:46:01;4.20;;;3.90;;
56517;SDS011;42419;48.760;2.322;2023-06-19T13:48:28;4.70;;;4.30;;
56517;SDS011;42419;48.760;2.322;2023-06-19T13:50:54;4.00;;;3.70;;
56517;SDS011;42419;48.760;2.322;2023-06-19T13:53:19;4.40;;;4.00;;
56517;SDS011;42419;48.760;2.322;2023-06-19T13:55:46;4.30;;;3.90;;
56517;SDS011;42419;48.760;2.322;2023-06-19T13:58:12;4.80;;;4.40;;
56517;SDS011;42419;48.760;2.322;2023-06-19T14:00:38;5.03;;;4.50;;
56517;SDS011;42419;48.760;2.322;2023-06-19T14:03:03;4.63;;;4.23;;
56517;SDS011;42419;48.760;2.322;2023-06-19T14:05:31;4.60;;;4.23;;
56517;SDS011;42419;48.760;2.322;2023-06-19T14:07:57;4.27;;;3.97;;
56517;SDS011;42419;48.760;2.322;2023-06-19T14:10:25;5.47;;;4.97;;
56517;SDS011;42419;48.760;2.322;2023-06-19T14:12:50;4.40;;;4.10;;
56517;SDS011;42419;48.760;2.322;2023-06-19T14:15:15;4.20;;;3.90;;
56517;SDS011;42419;48.760;2.322;2023-06-19T14:17:41;5.00;;;4.60;;
56517;SDS011;42419;48.760;2.322;2023-06-19T14:20:07;5.13;;;4.63;;
56517;SDS011;42419;48.760;2.322;2023-06-19T14:22:35;4.77;;;4.20;;
56517;SDS011;42419;48.760;2.322;2023-06-19T14:25:00;6.07;;;4.67;;
56517;SDS011;42419;48.760;2.322;2023-06-19T14:27:27;5.60;;;4.20;;
56517;SDS011;42419;48.760;2.322;2023-06-19T14:29:53;4.90;;;4.30;;
56517;SDS011;42419;48.760;2.322;2023-06-19T14:32:19;5.20;;;4.70;;
56517;SDS011;42419;48.760;2.322;2023-06-19T14:34:44;4.90;;;4.23;;
56517;SDS011;42419;48.760;2.322;2023-06-19T14:37:10;4.77;;;4.37;;
56517;SDS011;42419;48.760;2.322;2023-06-19T14:39:35;5.33;;;4.50;;
56517;SDS011;42419;48.760;2.322;2023-06-19T14:42:00;4.57;;;4.17;;
56517;SDS011;42419;48.760;2.322;2023-06-19T14:44:25;4.77;;;4.37;;
56517;SDS011;42419;48.760;2.322;2023-06-19T14:46:51;4.30;;;3.90;;
56517;SDS011;42419;48.760;2.322;2023-06-19T14:49:16;4.43;;;4.03;;
56517;SDS011;42419;48.760;2.322;2023-06-19T14:51:42;7.20;;;4.43;;
56517;SDS011;42419;48.760;2.322;2023-06-19T14:54:10;5.90;;;5.13;;